Tilghman, Maryland
Current Conditions -  °F | °C
As of 12:46 AM on Thursday 23 Oct 2014 (Local Time) from KESN Reporting Station
Broken Clouds Broken Clouds  
Wind Chill: 55°   Ceiling: 3100
Heat Index: 55°   Visibility: 10mi
Dew Point: 48°   Wind: 14mph
Humidity: 77%   Direction: 350°N
Pressure: 29.88"   Gusts: 21mph
Location:  38.72°N, 76.33°W
Report Text: KESN 230446Z AUTO 35012G18KT 10SM BKN031 BKN042 BKN047 13/09 A2988 RMK AO2 T01300091
Loading
Personal Weather Stations






























Interactive Weather Map New forecast layout! Learn more

10-Day Weather Forecast

Advertisements
Track Severe Weather on mobile